createdAt,value
2023-05-09T00:01:25.789Z,78.00
2023-05-09T00:03:30.545Z,78.00
2023-05-09T00:05:25.733Z,78.00
2023-05-09T00:07:25.791Z,78.00
2023-05-09T00:09:25.695Z,78.00
2023-05-09T00:11:25.746Z,79.00
2023-05-09T00:13:25.726Z,79.00
2023-05-09T00:15:25.707Z,79.00
2023-05-09T00:17:25.743Z,79.00
2023-05-09T00:19:25.834Z,79.00
2023-05-09T00:21:25.759Z,79.00
2023-05-09T00:23:25.794Z,79.00
2023-05-09T00:25:25.793Z,79.00
2023-05-09T00:27:28.650Z,79.00
2023-05-09T00:29:25.804Z,79.00
2023-05-09T00:31:25.828Z,79.00
2023-05-09T00:33:25.730Z,79.00
2023-05-09T00:35:25.897Z,79.00
2023-05-09T00:37:25.711Z,79.00
2023-05-09T00:39:25.715Z,79.00
2023-05-09T00:41:25.712Z,79.00
2023-05-09T00:43:25.890Z,79.00
2023-05-09T00:45:25.689Z,78.00
2023-05-09T00:47:25.793Z,78.00
2023-05-09T00:49:25.844Z,78.00
2023-05-09T00:51:25.705Z,78.00
2023-05-09T00:53:28.832Z,78.00
2023-05-09T00:55:25.817Z,78.00
2023-05-09T00:57:25.781Z,78.00
2023-05-09T00:59:25.863Z,78.00
2023-05-09T01:01:25.883Z,78.00
2023-05-09T01:03:25.788Z,78.00
2023-05-09T01:05:25.744Z,78.00
2023-05-09T01:07:25.730Z,78.00
2023-05-09T01:09:25.913Z,78.00
2023-05-09T01:11:25.774Z,78.00
2023-05-09T01:13:28.094Z,78.00
2023-05-09T01:17:25.918Z,78.00
2023-05-09T01:19:25.827Z,78.00
2023-05-09T01:21:27.403Z,78.00
2023-05-09T01:23:25.693Z,77.00
2023-05-09T01:25:25.763Z,77.00
2023-05-09T01:27:25.724Z,77.00
2023-05-09T01:29:25.800Z,77.00
2023-05-09T01:31:25.721Z,77.00
2023-05-09T01:33:25.854Z,77.00
2023-05-09T01:35:25.889Z,77.00
2023-05-09T01:37:36.670Z,77.00
2023-05-09T01:39:25.986Z,77.00
2023-05-09T01:41:25.913Z,78.00
2023-05-09T01:43:40.574Z,78.00
2023-05-09T01:45:40.376Z,78.00
2023-05-09T01:47:40.518Z,78.00
2023-05-09T01:49:40.550Z,78.00
2023-05-09T01:51:42.254Z,78.00
2023-05-09T01:53:40.382Z,78.00
2023-05-09T01:55:40.409Z,78.00
2023-05-09T01:57:40.438Z,78.00
2023-05-09T01:59:40.427Z,78.00
2023-05-09T02:01:40.422Z,78.00
2023-05-09T02:03:40.368Z,78.00
2023-05-09T02:05:42.575Z,78.00
2023-05-09T02:07:40.371Z,78.00
2023-05-09T02:09:40.458Z,78.00
2023-05-09T02:11:40.399Z,78.00
2023-05-09T02:13:40.406Z,78.00
2023-05-09T02:15:40.818Z,78.00
2023-05-09T02:17:40.367Z,78.00
2023-05-09T02:19:40.356Z,78.00
2023-05-09T02:21:40.400Z,78.00
2023-05-09T02:23:40.380Z,78.00
2023-05-09T02:25:43.346Z,78.00
2023-05-09T02:27:40.528Z,78.00
2023-05-09T02:29:40.530Z,78.00
2023-05-09T02:31:40.479Z,78.00
2023-05-09T02:33:40.433Z,78.00
2023-05-09T02:35:40.409Z,78.00
2023-05-09T02:37:40.539Z,78.00
2023-05-09T02:39:40.638Z,78.00
2023-05-09T02:41:40.393Z,78.00
2023-05-09T02:43:40.379Z,78.00
2023-05-09T02:45:40.621Z,78.00
2023-05-09T02:47:40.496Z,78.00
2023-05-09T02:49:44.246Z,78.00
2023-05-09T02:51:40.363Z,78.00
2023-05-09T02:53:40.354Z,78.00
2023-05-09T02:55:40.358Z,78.00
2023-05-09T02:57:40.416Z,77.00
2023-05-09T02:59:40.404Z,77.00
2023-05-09T03:01:40.578Z,77.00
2023-05-09T03:03:40.510Z,77.00
2023-05-09T03:05:40.416Z,77.00
2023-05-09T03:07:40.382Z,77.00
2023-05-09T03:09:41.310Z,77.00
2023-05-09T03:11:40.448Z,77.00
2023-05-09T03:13:40.377Z,77.00
2023-05-09T03:15:40.434Z,77.00
2023-05-09T03:18:40.490Z,77.00
2023-05-09T03:20:40.438Z,77.00
2023-05-09T03:22:40.392Z,78.00
2023-05-09T03:24:40.470Z,77.00
2023-05-09T03:26:40.474Z,77.00
2023-05-09T03:28:40.465Z,77.00
2023-05-09T03:30:40.460Z,77.00
2023-05-09T03:32:40.391Z,77.00
2023-05-09T03:34:40.571Z,77.00
2023-05-09T03:36:40.418Z,77.00
2023-05-09T03:38:40.483Z,77.00
2023-05-09T03:40:40.426Z,77.00
2023-05-09T03:42:40.496Z,76.00
2023-05-09T03:44:40.664Z,76.00
2023-05-09T03:46:40.694Z,76.00
2023-05-09T03:48:40.446Z,76.00
2023-05-09T03:50:40.663Z,76.00
2023-05-09T03:52:40.530Z,75.00
2023-05-09T03:54:40.422Z,75.00
2023-05-09T03:56:40.535Z,75.00
2023-05-09T03:58:43.550Z,75.00
2023-05-09T04:00:40.605Z,75.00
2023-05-09T04:02:40.709Z,75.00
2023-05-09T04:04:40.441Z,74.00
2023-05-09T04:06:40.670Z,74.00
2023-05-09T04:08:40.449Z,74.00
2023-05-09T04:10:40.679Z,74.00
2023-05-09T04:12:40.487Z,74.00
2023-05-09T04:14:40.579Z,73.00
2023-05-09T04:16:40.652Z,73.00
2023-05-09T04:18:40.732Z,73.00
2023-05-09T04:20:40.419Z,73.00
2023-05-09T04:22:44.838Z,72.00
2023-05-09T04:24:40.512Z,72.00
2023-05-09T04:26:41.481Z,72.00
2023-05-09T04:28:40.679Z,72.00
2023-05-09T04:30:40.534Z,71.00
2023-05-09T04:32:40.565Z,71.00
2023-05-09T04:34:44.123Z,71.00
2023-05-09T04:36:40.465Z,71.00
2023-05-09T04:38:40.474Z,71.00
2023-05-09T04:40:40.509Z,71.00
2023-05-09T04:42:40.657Z,71.00
2023-05-09T04:44:40.505Z,71.00
2023-05-09T04:46:40.532Z,71.00
2023-05-09T04:48:40.507Z,71.00
2023-05-09T04:50:40.510Z,72.00
2023-05-09T04:52:40.578Z,71.00
2023-05-09T04:54:40.568Z,71.00
2023-05-09T04:56:40.515Z,71.00
2023-05-09T04:58:40.514Z,71.00
2023-05-09T05:00:45.398Z,71.00
2023-05-09T05:02:40.536Z,71.00
2023-05-09T05:04:40.563Z,71.00
2023-05-09T05:06:40.492Z,71.00
2023-05-09T05:08:40.601Z,71.00
2023-05-09T05:10:40.687Z,71.00
2023-05-09T05:12:40.798Z,71.00
2023-05-09T05:14:40.616Z,70.00
2023-05-09T05:16:40.648Z,70.00
2023-05-09T05:18:40.526Z,70.00
2023-05-09T05:20:40.528Z,70.00
2023-05-09T05:22:40.747Z,70.00
2023-05-09T05:24:40.584Z,70.00
2023-05-09T05:26:40.697Z,69.00
2023-05-09T05:28:40.515Z,70.00
2023-05-09T05:30:40.583Z,70.00
2023-05-09T05:32:40.687Z,70.00
2023-05-09T05:34:40.515Z,69.00
2023-05-09T05:36:40.529Z,69.00
2023-05-09T05:38:40.697Z,69.00
2023-05-09T05:40:40.555Z,69.00
2023-05-09T05:42:40.608Z,69.00
2023-05-09T05:44:40.573Z,70.00
2023-05-09T05:46:40.610Z,69.00
2023-05-09T05:48:40.505Z,69.00
2023-05-09T05:50:40.563Z,69.00
2023-05-09T05:52:40.550Z,69.00
2023-05-09T05:54:40.566Z,69.00
2023-05-09T05:56:41.782Z,70.00
2023-05-09T05:58:40.487Z,70.00
2023-05-09T06:00:42.295Z,70.00
2023-05-09T06:02:43.777Z,69.00
2023-05-09T06:04:40.679Z,70.00
2023-05-09T06:06:40.648Z,69.00
2023-05-09T06:08:40.744Z,69.00
2023-05-09T06:10:40.554Z,69.00
2023-05-09T06:12:40.727Z,69.00
2023-05-09T06:14:40.742Z,70.00
2023-05-09T06:16:40.571Z,70.00
2023-05-09T06:18:40.576Z,70.00
2023-05-09T06:20:40.544Z,69.00
2023-05-09T06:22:40.596Z,69.00
2023-05-09T06:24:42.553Z,69.00
2023-05-09T06:26:40.607Z,69.00
2023-05-09T06:28:40.523Z,69.00
2023-05-09T06:30:40.640Z,68.00
2023-05-09T06:32:40.709Z,68.00
2023-05-09T06:34:40.695Z,68.00
2023-05-09T06:36:40.604Z,68.00
2023-05-09T06:38:40.544Z,67.00
2023-05-09T06:40:40.617Z,67.00
2023-05-09T06:42:40.559Z,67.00
2023-05-09T06:44:40.619Z,67.00
2023-05-09T06:46:40.667Z,67.00
2023-05-09T06:48:43.498Z,67.00
2023-05-09T06:50:40.600Z,67.00
2023-05-09T06:52:40.620Z,67.00
2023-05-09T06:54:40.627Z,67.00
2023-05-09T06:57:40.630Z,67.00
2023-05-09T06:59:40.626Z,67.00
2023-05-09T07:01:40.692Z,67.00
2023-05-09T07:03:40.683Z,67.00
2023-05-09T07:04:43.732Z,67.00
2023-05-09T07:07:40.623Z,68.00
2023-05-09T07:09:40.636Z,68.00
2023-05-09T07:11:40.585Z,67.00
2023-05-09T07:13:40.635Z,67.00
2023-05-09T07:15:42.537Z,67.00
2023-05-09T07:17:40.678Z,68.00
2023-05-09T07:19:40.585Z,68.00
2023-05-09T07:21:40.630Z,68.00
2023-05-09T07:23:40.678Z,68.00
2023-05-09T07:25:40.649Z,68.00
2023-05-09T07:27:40.679Z,68.00
2023-05-09T07:29:40.671Z,68.00
2023-05-09T07:31:40.669Z,67.00
2023-05-09T07:33:40.720Z,66.00
2023-05-09T07:35:43.920Z,66.00
2023-05-09T07:37:40.708Z,66.00
2023-05-09T07:39:40.678Z,65.00
2023-05-09T07:41:44.250Z,65.00
2023-05-09T07:43:40.657Z,65.00
2023-05-09T07:45:40.602Z,63.00
2023-05-09T07:47:40.819Z,63.00
2023-05-09T07:49:40.609Z,62.00
2023-05-09T07:51:40.616Z,62.00
2023-05-09T07:53:40.850Z,62.00
2023-05-09T07:55:40.743Z,61.00
2023-05-09T07:57:40.941Z,61.00
2023-05-09T08:01:52.319Z,61.00
2023-05-09T08:03:52.402Z,59.00
2023-05-09T08:05:55.212Z,59.00
2023-05-09T08:07:52.275Z,60.00
2023-05-09T08:09:52.338Z,59.00
2023-05-09T08:11:52.298Z,58.00
2023-05-09T08:13:52.320Z,59.00
2023-05-09T08:15:52.929Z,59.00
2023-05-09T08:17:52.480Z,59.00
2023-05-09T08:19:52.338Z,58.00
2023-05-09T08:21:52.432Z,58.00
2023-05-09T08:23:52.373Z,58.00
2023-05-09T08:25:52.587Z,58.00
2023-05-09T08:27:53.138Z,56.00
2023-05-09T08:29:52.310Z,56.00
2023-05-09T08:31:52.322Z,57.00
2023-05-09T08:33:52.448Z,57.00
2023-05-09T08:35:52.337Z,56.00
2023-05-09T08:37:52.353Z,54.00
2023-05-09T08:39:52.296Z,55.00
2023-05-09T08:41:52.586Z,54.00
2023-05-09T08:43:52.326Z,54.00
2023-05-09T08:45:52.359Z,54.00
2023-05-09T08:47:52.487Z,53.00
2023-05-09T08:49:57.259Z,53.00
2023-05-09T08:51:52.386Z,53.00
2023-05-09T08:53:52.424Z,53.00
2023-05-09T08:55:52.378Z,52.00
2023-05-09T08:57:52.422Z,53.00
2023-05-09T08:59:52.441Z,53.00
2023-05-09T09:01:52.463Z,53.00
2023-05-09T09:03:52.385Z,51.00
2023-05-09T09:05:52.640Z,51.00
2023-05-09T09:07:55.329Z,50.00
2023-05-09T09:09:52.393Z,50.00
2023-05-09T09:11:52.342Z,50.00
2023-05-09T09:13:52.481Z,50.00
2023-05-09T09:15:52.415Z,50.00
2023-05-09T09:17:52.448Z,52.00
2023-05-09T09:19:52.409Z,52.00
2023-05-09T09:21:52.428Z,52.00
2023-05-09T09:23:52.353Z,50.00
2023-05-09T09:25:52.461Z,51.00
2023-05-09T09:27:52.430Z,49.00
2023-05-09T09:29:55.761Z,51.00
2023-05-09T09:31:52.455Z,51.00
2023-05-09T09:33:52.746Z,50.00
2023-05-09T09:35:52.376Z,52.00
2023-05-09T09:37:57.853Z,51.00
2023-05-09T09:39:52.341Z,51.00
2023-05-09T09:41:55.375Z,49.00
2023-05-09T09:43:52.496Z,50.00
2023-05-09T09:45:52.446Z,50.00
2023-05-09T09:47:52.452Z,49.00
2023-05-09T09:49:52.424Z,49.00
2023-05-09T09:51:52.409Z,48.00
2023-05-09T09:53:52.530Z,48.00
2023-05-09T09:55:52.375Z,47.00
2023-05-09T09:57:53.593Z,48.00
2023-05-09T09:59:52.514Z,48.00
2023-05-09T10:01:52.439Z,50.00
2023-05-09T10:03:52.507Z,48.00
2023-05-09T10:05:52.422Z,46.00
2023-05-09T10:07:52.378Z,46.00
2023-05-09T10:09:52.419Z,47.00
2023-05-09T10:11:52.400Z,49.00
2023-05-09T10:13:52.447Z,50.00
2023-05-09T10:15:54.003Z,50.00
2023-05-09T10:17:52.521Z,50.00
2023-05-09T10:19:52.505Z,50.00
2023-05-09T10:21:52.405Z,50.00
2023-05-09T10:23:52.521Z,51.00
2023-05-09T10:25:52.553Z,51.00
2023-05-09T10:27:52.487Z,51.00
2023-05-09T10:29:54.330Z,47.00
2023-05-09T10:31:52.678Z,48.00
2023-05-09T10:33:52.532Z,50.00
2023-05-09T10:35:52.720Z,50.00
2023-05-09T10:37:52.474Z,47.00
2023-05-09T10:39:52.402Z,50.00
2023-05-09T10:41:52.538Z,48.00
2023-05-09T10:43:55.342Z,48.00
2023-05-09T10:45:52.745Z,48.00
2023-05-09T10:47:52.531Z,50.00
2023-05-09T10:49:52.520Z,50.00
2023-05-09T10:51:52.431Z,51.00
2023-05-09T10:53:52.543Z,50.00
2023-05-09T10:55:52.486Z,50.00
2023-05-09T10:57:52.438Z,50.00
2023-05-09T10:59:53.691Z,51.00
2023-05-09T11:01:52.816Z,51.00
2023-05-09T11:03:52.495Z,51.00
2023-05-09T11:05:53.496Z,51.00
2023-05-09T11:07:52.655Z,51.00
2023-05-09T11:09:52.569Z,51.00
2023-05-09T11:11:52.908Z,51.00
2023-05-09T11:13:52.607Z,51.00
2023-05-09T11:15:52.602Z,52.00
2023-05-09T11:17:52.584Z,53.00
2023-05-09T11:19:52.536Z,52.00
2023-05-09T11:21:52.584Z,53.00
2023-05-09T11:23:54.988Z,53.00
2023-05-09T11:25:52.496Z,52.00
2023-05-09T11:27:52.520Z,52.00
2023-05-09T11:29:52.514Z,51.00
2023-05-09T11:31:52.714Z,51.00
2023-05-09T11:34:52.485Z,53.00
2023-05-09T11:36:53.560Z,53.00
2023-05-09T11:38:52.567Z,53.00
2023-05-09T11:40:54.771Z,52.00
2023-05-09T11:42:52.755Z,51.00
2023-05-09T11:44:52.536Z,51.00
2023-05-09T11:46:52.564Z,51.00
2023-05-09T11:48:53.027Z,51.00
2023-05-09T11:50:52.550Z,52.00
2023-05-09T11:52:52.509Z,52.00
2023-05-09T11:54:52.637Z,52.00
2023-05-09T11:56:52.546Z,52.00
2023-05-09T11:58:52.530Z,52.00
2023-05-09T12:00:52.504Z,52.00
2023-05-09T12:02:52.700Z,52.00
2023-05-09T12:04:52.635Z,52.00
2023-05-09T12:06:52.532Z,52.00
2023-05-09T12:08:52.632Z,53.00
2023-05-09T12:10:52.516Z,55.00
2023-05-09T12:12:52.724Z,52.00
2023-05-09T12:14:52.614Z,52.00
2023-05-09T12:16:55.880Z,54.00
2023-05-09T12:18:52.632Z,56.00
2023-05-09T12:20:52.793Z,54.00
2023-05-09T12:22:52.512Z,54.00
2023-05-09T12:24:52.686Z,54.00
2023-05-09T12:26:52.640Z,55.00
2023-05-09T12:28:52.540Z,55.00
2023-05-09T12:30:52.836Z,55.00
2023-05-09T12:32:52.661Z,55.00
2023-05-09T12:34:52.549Z,55.00
2023-05-09T12:36:52.620Z,55.00
2023-05-09T12:38:52.538Z,56.00
2023-05-09T12:40:52.683Z,55.00
2023-05-09T12:42:54.161Z,55.00
2023-05-09T12:44:52.946Z,55.00
2023-05-09T12:46:52.652Z,56.00
2023-05-09T12:48:52.621Z,55.00
2023-05-09T12:50:52.553Z,56.00
2023-05-09T12:53:02.689Z,56.00
2023-05-09T12:54:52.655Z,56.00
2023-05-09T12:56:52.749Z,57.00
2023-05-09T12:58:52.662Z,57.00
2023-05-09T13:00:52.681Z,57.00
2023-05-09T13:02:52.716Z,57.00
2023-05-09T13:04:52.594Z,57.00
2023-05-09T13:06:52.667Z,57.00
2023-05-09T13:08:52.550Z,57.00
2023-05-09T13:10:57.851Z,57.00
2023-05-09T13:12:52.584Z,56.00
2023-05-09T13:14:52.601Z,56.00
2023-05-09T13:16:52.711Z,57.00
2023-05-09T13:18:55.527Z,57.00
2023-05-09T13:20:53.282Z,57.00
2023-05-09T13:22:52.608Z,57.00
2023-05-09T13:24:52.822Z,57.00
2023-05-09T13:26:52.629Z,57.00
2023-05-09T13:28:52.578Z,57.00
2023-05-09T13:30:52.619Z,57.00
2023-05-09T13:32:52.644Z,57.00
2023-05-09T13:34:52.721Z,57.00
2023-05-09T13:36:52.748Z,57.00
2023-05-09T13:38:52.642Z,57.00
2023-05-09T13:40:52.710Z,57.00
2023-05-09T13:42:52.580Z,57.00
2023-05-09T13:44:52.773Z,57.00
2023-05-09T13:46:52.683Z,58.00
2023-05-09T13:48:52.622Z,58.00
2023-05-09T13:50:52.824Z,58.00
2023-05-09T13:52:52.810Z,58.00
2023-05-09T13:54:52.700Z,57.00
2023-05-09T13:56:52.618Z,57.00
2023-05-09T13:58:52.709Z,57.00
2023-05-09T14:00:52.580Z,58.00
2023-05-09T14:02:52.830Z,58.00
2023-05-09T14:04:52.711Z,58.00
2023-05-09T14:06:53.229Z,58.00
2023-05-09T14:11:08.595Z,57.00
2023-05-09T14:13:08.648Z,58.00
2023-05-09T14:15:08.459Z,58.00
2023-05-09T14:17:08.810Z,58.00
2023-05-09T14:19:08.480Z,58.00
2023-05-09T14:21:08.747Z,57.00
2023-05-09T14:23:08.437Z,57.00
2023-05-09T14:25:08.437Z,57.00
2023-05-09T14:27:08.553Z,57.00
2023-05-09T14:29:08.543Z,58.00
2023-05-09T14:31:09.062Z,58.00
2023-05-09T14:33:08.564Z,57.00
2023-05-09T14:35:08.545Z,57.00
2023-05-09T14:37:08.552Z,57.00
2023-05-09T14:39:08.728Z,57.00
2023-05-09T14:41:08.561Z,58.00
2023-05-09T14:43:08.536Z,59.00
2023-05-09T14:45:08.666Z,59.00
2023-05-09T14:47:08.824Z,58.00
2023-05-09T14:49:08.510Z,58.00
2023-05-09T14:51:11.806Z,58.00
2023-05-09T14:53:08.543Z,58.00
2023-05-09T14:55:08.456Z,58.00
2023-05-09T14:57:08.722Z,58.00
2023-05-09T14:59:08.934Z,57.00
2023-05-09T15:01:08.630Z,58.00
2023-05-09T15:03:12.512Z,58.00
2023-05-09T15:05:10.630Z,58.00
2023-05-09T15:07:11.269Z,58.00
2023-05-09T15:09:08.691Z,58.00
2023-05-09T15:11:08.559Z,58.00
2023-05-09T15:13:08.576Z,58.00
2023-05-09T15:15:08.527Z,58.00
2023-05-09T15:17:08.675Z,58.00
2023-05-09T15:19:08.879Z,57.00
2023-05-09T15:21:09.512Z,58.00
2023-05-09T15:23:08.791Z,58.00
2023-05-09T15:25:08.543Z,58.00
2023-05-09T15:27:08.512Z,58.00
2023-05-09T15:29:08.593Z,58.00
2023-05-09T15:31:08.538Z,57.00
2023-05-09T15:33:08.744Z,57.00
2023-05-09T15:35:08.660Z,58.00
2023-05-09T15:37:08.605Z,58.00
2023-05-09T15:39:08.687Z,58.00
2023-05-09T15:41:08.690Z,58.00
2023-05-09T15:43:08.676Z,58.00
2023-05-09T15:45:08.577Z,58.00
2023-05-09T15:47:11.368Z,58.00
2023-05-09T15:49:08.712Z,57.00
2023-05-09T15:51:08.529Z,57.00
2023-05-09T15:53:11.623Z,57.00
2023-05-09T15:55:08.851Z,58.00
2023-05-09T15:57:08.579Z,58.00
2023-05-09T15:59:08.573Z,58.00
2023-05-09T16:01:08.709Z,58.00
2023-05-09T16:03:08.735Z,58.00
2023-05-09T16:05:08.560Z,58.00
2023-05-09T16:07:08.872Z,58.00
2023-05-09T16:09:08.812Z,58.00
2023-05-09T16:11:08.915Z,58.00
2023-05-09T16:13:10.003Z,57.00
2023-05-09T16:15:08.840Z,57.00
2023-05-09T16:17:08.559Z,57.00
2023-05-09T16:19:08.733Z,57.00
2023-05-09T16:21:08.688Z,58.00
2023-05-09T16:23:08.565Z,58.00
2023-05-09T16:26:08.836Z,58.00
2023-05-09T16:28:10.102Z,58.00
2023-05-09T16:30:08.587Z,57.00
2023-05-09T16:32:08.784Z,57.00
2023-05-09T16:34:08.706Z,57.00
2023-05-09T16:35:12.487Z,58.00
2023-05-09T16:38:08.768Z,58.00
2023-05-09T16:40:08.641Z,58.00
2023-05-09T16:42:08.643Z,58.00
2023-05-09T16:44:08.626Z,58.00
2023-05-09T16:46:08.652Z,58.00
2023-05-09T16:48:08.622Z,58.00
2023-05-09T16:50:08.620Z,58.00
2023-05-09T16:52:09.695Z,58.00
2023-05-09T16:54:08.688Z,58.00
2023-05-09T16:56:08.594Z,58.00
2023-05-09T16:58:08.564Z,58.00
2023-05-09T17:00:08.646Z,58.00
2023-05-09T17:02:09.477Z,58.00
2023-05-09T17:04:08.673Z,58.00
2023-05-09T17:06:08.718Z,58.00
2023-05-09T17:08:10.368Z,58.00
2023-05-09T17:10:08.722Z,58.00
2023-05-09T17:12:08.582Z,59.00
2023-05-09T17:14:08.609Z,59.00
2023-05-09T17:16:08.663Z,59.00
2023-05-09T17:18:08.641Z,59.00
2023-05-09T17:20:08.649Z,59.00
2023-05-09T17:22:08.671Z,59.00
2023-05-09T17:24:08.651Z,59.00
2023-05-09T17:26:12.969Z,59.00
2023-05-09T17:28:08.606Z,59.00
2023-05-09T17:30:08.695Z,59.00
2023-05-09T17:32:08.589Z,59.00
2023-05-09T17:34:08.808Z,59.00
2023-05-09T17:36:08.583Z,59.00
2023-05-09T17:38:08.667Z,59.00
2023-05-09T17:40:08.649Z,59.00
2023-05-09T17:42:08.648Z,59.00
2023-05-09T17:44:08.616Z,59.00
2023-05-09T17:46:08.919Z,60.00
2023-05-09T17:48:09.324Z,60.00
2023-05-09T17:50:08.777Z,60.00
2023-05-09T17:52:08.594Z,60.00
2023-05-09T17:54:08.658Z,60.00
2023-05-09T17:56:08.655Z,60.00
2023-05-09T17:58:12.285Z,60.00
2023-05-09T18:00:08.799Z,60.00
2023-05-09T18:02:08.607Z,59.00
2023-05-09T18:04:08.601Z,59.00
2023-05-09T18:06:11.512Z,60.00
2023-05-09T18:08:08.620Z,60.00
2023-05-09T18:10:08.616Z,59.00
2023-05-09T18:12:08.820Z,59.00
2023-05-09T18:14:08.634Z,59.00
2023-05-09T18:16:08.719Z,59.00
2023-05-09T18:18:08.715Z,59.00
2023-05-09T18:20:08.847Z,59.00
2023-05-09T18:22:08.645Z,59.00
2023-05-09T18:24:08.643Z,59.00
2023-05-09T18:26:08.730Z,59.00
2023-05-09T18:28:11.540Z,59.00
2023-05-09T18:30:08.705Z,59.00
2023-05-09T18:32:08.910Z,60.00
2023-05-09T18:34:12.510Z,60.00
2023-05-09T18:36:08.725Z,60.00
2023-05-09T18:38:08.754Z,61.00
2023-05-09T18:40:08.866Z,67.00
2023-05-09T18:42:08.785Z,69.00
2023-05-09T18:44:08.669Z,69.00
2023-05-09T18:46:08.697Z,72.00
2023-05-09T18:48:08.747Z,73.00
2023-05-09T18:50:08.816Z,75.00
2023-05-09T18:52:08.683Z,76.00
2023-05-09T18:54:08.696Z,76.00
2023-05-09T18:56:08.834Z,77.00
2023-05-09T18:58:08.748Z,77.00
2023-05-09T19:00:08.678Z,77.00
2023-05-09T19:02:08.672Z,78.00
2023-05-09T19:04:08.795Z,78.00
2023-05-09T19:06:08.721Z,78.00
2023-05-09T19:08:09.027Z,78.00
2023-05-09T19:10:08.757Z,79.00
2023-05-09T19:12:08.674Z,79.00
2023-05-09T19:14:08.808Z,79.00
2023-05-09T19:16:08.798Z,79.00
2023-05-09T19:18:08.786Z,79.00
2023-05-09T19:20:08.720Z,79.00
2023-05-09T19:22:08.812Z,79.00
2023-05-09T19:24:08.734Z,80.00
2023-05-09T19:26:08.721Z,80.00
2023-05-09T19:28:08.785Z,80.00
2023-05-09T19:30:12.036Z,80.00
2023-05-09T19:32:10.266Z,80.00
2023-05-09T19:34:08.843Z,80.00
2023-05-09T19:36:08.964Z,80.00
2023-05-09T19:38:08.931Z,80.00
2023-05-09T19:40:08.866Z,81.00
2023-05-09T19:42:08.810Z,81.00
2023-05-09T19:44:08.785Z,81.00
2023-05-09T19:46:08.800Z,81.00
2023-05-09T19:48:08.809Z,81.00
2023-05-09T19:50:08.764Z,81.00
2023-05-09T19:52:08.683Z,81.00
2023-05-09T19:54:08.799Z,81.00
2023-05-09T19:56:08.861Z,81.00
2023-05-09T19:58:08.873Z,81.00
2023-05-09T20:00:08.770Z,81.00
2023-05-09T20:02:08.857Z,81.00
2023-05-09T20:04:08.947Z,81.00
2023-05-09T20:06:08.870Z,81.00
2023-05-09T20:10:20.010Z,81.00
2023-05-09T20:12:19.987Z,81.00
2023-05-09T20:14:20.017Z,81.00
2023-05-09T20:16:20.149Z,81.00
2023-05-09T20:18:19.999Z,81.00
2023-05-09T20:20:24.871Z,81.00
2023-05-09T20:22:20.023Z,81.00
2023-05-09T20:24:20.177Z,81.00
2023-05-09T20:26:20.122Z,82.00
2023-05-09T20:28:20.059Z,82.00
2023-05-09T20:30:19.977Z,82.00
2023-05-09T20:32:20.001Z,82.00
2023-05-09T20:34:19.997Z,82.00
2023-05-09T20:36:20.062Z,82.00
2023-05-09T20:38:20.043Z,82.00
2023-05-09T20:40:20.003Z,82.00
2023-05-09T20:42:20.020Z,82.00
2023-05-09T20:44:20.458Z,82.00
2023-05-09T20:46:20.027Z,82.00
2023-05-09T20:48:20.116Z,82.00
2023-05-09T20:51:20.062Z,82.00
2023-05-09T20:53:20.031Z,82.00
2023-05-09T20:55:19.992Z,82.00
2023-05-09T20:57:20.122Z,82.00
2023-05-09T20:59:20.068Z,82.00
2023-05-09T21:01:20.059Z,82.00
2023-05-09T21:03:20.157Z,82.00
2023-05-09T21:05:20.106Z,82.00
2023-05-09T21:07:20.045Z,82.00
2023-05-09T21:09:20.496Z,82.00
2023-05-09T21:11:20.021Z,82.00
2023-05-09T21:13:20.094Z,82.00
2023-05-09T21:15:20.025Z,82.00
2023-05-09T21:17:20.222Z,82.00
2023-05-09T21:19:20.030Z,82.00
2023-05-09T21:21:20.021Z,82.00
2023-05-09T21:23:20.089Z,82.00
2023-05-09T21:25:20.072Z,83.00
2023-05-09T21:27:20.183Z,83.00
2023-05-09T21:29:20.143Z,83.00
2023-05-09T21:31:20.064Z,83.00
2023-05-09T21:33:23.737Z,83.00
2023-05-09T21:35:20.096Z,83.00
2023-05-09T21:37:20.068Z,83.00
2023-05-09T21:39:20.187Z,83.00
2023-05-09T21:41:20.112Z,83.00
2023-05-09T21:43:20.199Z,83.00
2023-05-09T21:45:20.184Z,83.00
2023-05-09T21:47:22.922Z,83.00
2023-05-09T21:49:20.974Z,83.00
2023-05-09T21:51:20.170Z,83.00
2023-05-09T21:53:20.024Z,83.00
2023-05-09T21:55:20.064Z,83.00
2023-05-09T21:57:20.051Z,83.00
2023-05-09T21:59:20.029Z,83.00
2023-05-09T22:01:20.185Z,83.00
2023-05-09T22:03:20.383Z,83.00
2023-05-09T22:05:20.093Z,83.00
2023-05-09T22:07:20.036Z,83.00
2023-05-09T22:09:20.100Z,83.00
2023-05-09T22:11:20.096Z,83.00
2023-05-09T22:13:20.211Z,83.00
2023-05-09T22:15:20.169Z,83.00
2023-05-09T22:17:20.308Z,83.00
2023-05-09T22:19:20.400Z,83.00
2023-05-09T22:21:20.048Z,83.00
2023-05-09T22:23:20.078Z,83.00
2023-05-09T22:25:20.055Z,83.00
2023-05-09T22:27:20.151Z,83.00
2023-05-09T22:29:20.117Z,83.00
2023-05-09T22:31:20.272Z,83.00
2023-05-09T22:33:20.056Z,83.00
2023-05-09T22:35:23.378Z,83.00
2023-05-09T22:37:20.095Z,83.00
2023-05-09T22:39:20.128Z,83.00
2023-05-09T22:41:20.120Z,83.00
2023-05-09T22:43:20.076Z,83.00
2023-05-09T22:45:20.106Z,83.00
2023-05-09T22:47:20.378Z,83.00
2023-05-09T22:49:20.268Z,83.00
2023-05-09T22:51:20.150Z,83.00
2023-05-09T22:53:20.173Z,83.00
2023-05-09T22:55:20.082Z,83.00
2023-05-09T22:57:20.119Z,83.00
2023-05-09T22:59:20.323Z,83.00
2023-05-09T23:01:20.267Z,83.00
2023-05-09T23:03:20.185Z,83.00
2023-05-09T23:05:20.267Z,83.00
2023-05-09T23:07:20.091Z,83.00
2023-05-09T23:09:20.141Z,83.00
2023-05-09T23:11:20.419Z,83.00
2023-05-09T23:13:22.600Z,83.00
2023-05-09T23:15:20.188Z,83.00
2023-05-09T23:17:20.103Z,83.00
2023-05-09T23:19:20.102Z,83.00
2023-05-09T23:21:20.126Z,83.00
2023-05-09T23:23:20.157Z,83.00
2023-05-09T23:25:20.131Z,83.00
2023-05-09T23:27:20.204Z,83.00
2023-05-09T23:29:20.099Z,83.00
2023-05-09T23:31:20.336Z,83.00
2023-05-09T23:33:20.172Z,83.00
2023-05-09T23:35:20.557Z,83.00
2023-05-09T23:37:22.942Z,83.00
2023-05-09T23:39:20.221Z,83.00
2023-05-09T23:41:20.184Z,83.00
2023-05-09T23:43:20.332Z,83.00
2023-05-09T23:45:20.169Z,83.00
2023-05-09T23:47:20.835Z,83.00
2023-05-09T23:49:20.139Z,83.00
2023-05-09T23:51:20.323Z,83.00
2023-05-09T23:53:20.160Z,83.00
2023-05-09T23:55:20.272Z,83.00
2023-05-09T23:57:20.217Z,83.00
2023-05-09T23:59:20.250Z,83.00
